Em decolagem rejeitada, avião com 272 a bordo perde o rumo e afunda na lateral da pista

Airbus A300-600 de matrícula EP-SIG – Imagem ilustrativa: Anna Zvereva / CC BY-SA 2.0, via Flickr

Um incidente de excursão de pista foi registrado no último sábado, 19 de março, quando os pilotos de um avião A300 não puderam manter a aeronave no centro da pista durante uma rejeição de decolagem.

A ocorrência se deu no aeroporto Imam Khomeini, de Teerã, no Irã, quando o Airbus A300B4-600R registrado sob a matrícula EP-SIG, operado pela Meraj Airlines, estava começando o voo IJ-4805 para Istambul, na Turquia, com 272 pessoas a bordo, sendo 260 passageiros e 12 tripulantes.

Segundo relata o The Aviation Herald, os pilotos estavam acelerando para decolar da pista 29R do Imam Khomeini por volta das 13h10 locais (07:40Z) quando receberam uma indicação de falha nos freios e iniciaram a rejeição da decolagem.

Embora a rejeição tenha ocorrido ainda em baixa velocidade, a aeronave desviou para a esquerda até a lateral da pista antes de parar com o trem principal esquerdo afundado em solo macio. A pista precisou ser fechada por cerca de 2 horas devido à aeronave presa no local.

Os Relatórios Meteorológicos de Aeródromo (METARs) dos horários próximos ao do incidente indicam ventos de no máximo 6 nós (11,1 km/h):

METAR
OIIE 190800Z 14006KT 9999 FEW035 12/M06 Q1020=
OIIE 190730Z 11006KT 9999 FEW035 11/M06 Q1021=

O Aviation Herald recebeu a informação de que um pneu estourado pode ter causado a saída da pista, mas ainda não há conhecimento de nenhum pronunciamento oficial fornecendo mais detalhes.

A aeronave partiu para o voo cerca de 13,5 horas depois, portanto, parece não ter havido consequências relevantes ao A300.

Murilo Basseto
Murilo Bassetohttp://aeroin.net
Formado em Engenharia Mecânica e com Pós-Graduação em Engenharia de Manutenção Aeronáutica, possui mais de 6 anos de experiência na área controle técnico de manutenção aeronáutica.

Veja outras histórias

Por causa de amendoim, família foi desembarcada de voo da Azul...

0
Uma confusão envolvendo amendoim, alergia e pane na aeronave levou ao cancelamento de um voo da Azul para o interior de Minas.